sensor_id;sensor_type;location;lat;lon;timestamp;temperature;humidity
21216;DHT22;10765;50.954;5.322;2022-08-01T00:01:57;20.80;24.10
21216;DHT22;10765;50.954;5.322;2022-08-01T00:04:24;20.80;1.00
21216;DHT22;10765;50.954;5.322;2022-08-01T00:06:52;20.70;99.90
21216;DHT22;10765;50.954;5.322;2022-08-01T00:09:19;20.70;99.90
21216;DHT22;10765;50.954;5.322;2022-08-01T00:11:46;20.70;99.90
21216;DHT22;10765;50.954;5.322;2022-08-01T00:14:13;20.70;1.00
21216;DHT22;10765;50.954;5.322;2022-08-01T00:16:40;20.70;1.00
21216;DHT22;10765;50.954;5.322;2022-08-01T00:19:07;20.50;1.00
21216;DHT22;10765;50.954;5.322;2022-08-01T00:21:33;20.40;1.00
21216;DHT22;10765;50.954;5.322;2022-08-01T00:24:02;20.30;1.00
21216;DHT22;10765;50.954;5.322;2022-08-01T00:26:29;20.30;99.90
21216;DHT22;10765;50.954;5.322;2022-08-01T00:28:55;20.20;1.00
21216;DHT22;10765;50.954;5.322;2022-08-01T00:31:22;20.10;1.00
21216;DHT22;10765;50.954;5.322;2022-08-01T00:33:49;20.10;99.90
21216;DHT22;10765;50.954;5.322;2022-08-01T00:36:16;20.10;1.00
21216;DHT22;10765;50.954;5.322;2022-08-01T00:38:43;20.20;99.90
21216;DHT22;10765;50.954;5.322;2022-08-01T00:41:11;20.30;1.00
21216;DHT22;10765;50.954;5.322;2022-08-01T00:43:38;20.30;99.90
21216;DHT22;10765;50.954;5.322;2022-08-01T00:46:05;20.40;99.90
21216;DHT22;10765;50.954;5.322;2022-08-01T00:48:31;20.40;99.90
21216;DHT22;10765;50.954;5.322;2022-08-01T00:50:58;20.30;1.00
21216;DHT22;10765;50.954;5.322;2022-08-01T00:53:25;20.30;99.90
21216;DHT22;10765;50.954;5.322;2022-08-01T00:55:53;20.30;1.00
21216;DHT22;10765;50.954;5.322;2022-08-01T00:58:21;20.30;1.00
21216;DHT22;10765;50.954;5.322;2022-08-01T01:00:48;20.30;99.90
21216;DHT22;10765;50.954;5.322;2022-08-01T01:03:15;20.20;1.00
21216;DHT22;10765;50.954;5.322;2022-08-01T01:05:48;20.20;99.90
21216;DHT22;10765;50.954;5.322;2022-08-01T01:08:21;20.30;99.90
21216;DHT22;10765;50.954;5.322;2022-08-01T01:10:54;20.30;1.00
21216;DHT22;10765;50.954;5.322;2022-08-01T01:13:30;20.40;1.00
21216;DHT22;10765;50.954;5.322;2022-08-01T01:16:01;20.40;1.00
21216;DHT22;10765;50.954;5.322;2022-08-01T01:18:34;20.40;1.00
21216;DHT22;10765;50.954;5.322;2022-08-01T01:21:09;20.50;99.90
21216;DHT22;10765;50.954;5.322;2022-08-01T01:23:49;20.60;26.90
21216;DHT22;10765;50.954;5.322;2022-08-01T01:26:39;20.60;24.30
21216;DHT22;10765;50.954;5.322;2022-08-01T01:29:14;20.60;1.00
21216;DHT22;10765;50.954;5.322;2022-08-01T01:31:46;20.50;1.00
21216;DHT22;10765;50.954;5.322;2022-08-01T01:34:17;20.60;5.50
21216;DHT22;10765;50.954;5.322;2022-08-01T01:36:46;20.60;1.00
21216;DHT22;10765;50.954;5.322;2022-08-01T01:39:14;20.60;1.00
21216;DHT22;10765;50.954;5.322;2022-08-01T01:41:43;20.50;1.00
21216;DHT22;10765;50.954;5.322;2022-08-01T01:44:12;20.50;1.00
21216;DHT22;10765;50.954;5.322;2022-08-01T01:46:40;20.60;1.00
21216;DHT22;10765;50.954;5.322;2022-08-01T01:49:08;20.50;1.00
21216;DHT22;10765;50.954;5.322;2022-08-01T01:51:37;20.50;1.00
21216;DHT22;10765;50.954;5.322;2022-08-01T01:54:05;20.50;1.00
21216;DHT22;10765;50.954;5.322;2022-08-01T01:56:35;20.50;1.00
21216;DHT22;10765;50.954;5.322;2022-08-01T01:59:18;20.40;1.00
21216;DHT22;10765;50.954;5.322;2022-08-01T02:01:46;20.40;99.90
21216;DHT22;10765;50.954;5.322;2022-08-01T02:04:14;20.40;99.90
21216;DHT22;10765;50.954;5.322;2022-08-01T02:06:43;20.50;1.00
21216;DHT22;10765;50.954;5.322;2022-08-01T02:09:14;20.40;1.00
21216;DHT22;10765;50.954;5.322;2022-08-01T02:11:44;20.30;1.00
21216;DHT22;10765;50.954;5.322;2022-08-01T02:14:12;20.20;99.90
21216;DHT22;10765;50.954;5.322;2022-08-01T02:16:42;20.10;1.00
21216;DHT22;10765;50.954;5.322;2022-08-01T02:19:11;20.10;1.00
21216;DHT22;10765;50.954;5.322;2022-08-01T02:21:44;20.00;1.00
21216;DHT22;10765;50.954;5.322;2022-08-01T02:24:14;20.00;99.90
21216;DHT22;10765;50.954;5.322;2022-08-01T02:26:47;20.00;99.90
21216;DHT22;10765;50.954;5.322;2022-08-01T02:29:21;19.90;1.00
21216;DHT22;10765;50.954;5.322;2022-08-01T02:31:51;19.90;1.00
21216;DHT22;10765;50.954;5.322;2022-08-01T02:34:21;19.90;1.00
21216;DHT22;10765;50.954;5.322;2022-08-01T02:36:49;20.00;1.00
21216;DHT22;10765;50.954;5.322;2022-08-01T02:39:19;20.10;99.90
21216;DHT22;10765;50.954;5.322;2022-08-01T02:41:50;20.10;99.90
21216;DHT22;10765;50.954;5.322;2022-08-01T02:44:23;20.00;1.00
21216;DHT22;10765;50.954;5.322;2022-08-01T02:46:54;20.00;99.90
21216;DHT22;10765;50.954;5.322;2022-08-01T02:49:24;20.10;99.90
21216;DHT22;10765;50.954;5.322;2022-08-01T02:51:53;20.20;1.00
21216;DHT22;10765;50.954;5.322;2022-08-01T02:54:21;20.20;99.90
21216;DHT22;10765;50.954;5.322;2022-08-01T02:56:50;20.20;1.00
21216;DHT22;10765;50.954;5.322;2022-08-01T02:59:19;20.20;1.00
21216;DHT22;10765;50.954;5.322;2022-08-01T03:01:53;20.20;1.00
21216;DHT22;10765;50.954;5.322;2022-08-01T03:04:20;20.10;1.00
21216;DHT22;10765;50.954;5.322;2022-08-01T03:06:48;20.10;99.90
21216;DHT22;10765;50.954;5.322;2022-08-01T03:09:16;20.10;99.90
21216;DHT22;10765;50.954;5.322;2022-08-01T03:11:45;20.00;99.90
21216;DHT22;10765;50.954;5.322;2022-08-01T03:14:14;20.00;1.00
21216;DHT22;10765;50.954;5.322;2022-08-01T03:16:43;20.00;1.00
21216;DHT22;10765;50.954;5.322;2022-08-01T03:19:13;19.90;1.00
21216;DHT22;10765;50.954;5.322;2022-08-01T03:21:43;19.90;99.90
21216;DHT22;10765;50.954;5.322;2022-08-01T03:24:11;19.90;56.40
21216;DHT22;10765;50.954;5.322;2022-08-01T03:26:40;20.10;1.00
21216;DHT22;10765;50.954;5.322;2022-08-01T03:29:12;20.10;99.90
21216;DHT22;10765;50.954;5.322;2022-08-01T03:31:43;20.00;99.90
21216;DHT22;10765;50.954;5.322;2022-08-01T03:34:12;20.00;99.90
21216;DHT22;10765;50.954;5.322;2022-08-01T03:36:45;20.00;99.90
21216;DHT22;10765;50.954;5.322;2022-08-01T03:39:13;20.10;99.90
21216;DHT22;10765;50.954;5.322;2022-08-01T03:41:45;20.30;1.00
21216;DHT22;10765;50.954;5.322;2022-08-01T03:44:14;20.40;99.90
21216;DHT22;10765;50.954;5.322;2022-08-01T03:46:45;20.40;99.90
21216;DHT22;10765;50.954;5.322;2022-08-01T03:49:28;20.40;99.90
21216;DHT22;10765;50.954;5.322;2022-08-01T03:51:57;20.40;73.30
21216;DHT22;10765;50.954;5.322;2022-08-01T03:54:30;20.30;99.90
21216;DHT22;10765;50.954;5.322;2022-08-01T03:56:58;20.20;1.00
21216;DHT22;10765;50.954;5.322;2022-08-01T03:59:26;20.00;1.00
21216;DHT22;10765;50.954;5.322;2022-08-01T04:01:54;20.00;99.90
21216;DHT22;10765;50.954;5.322;2022-08-01T04:04:23;20.00;1.00
21216;DHT22;10765;50.954;5.322;2022-08-01T04:06:50;20.10;1.00
21216;DHT22;10765;50.954;5.322;2022-08-01T04:09:19;20.10;99.90
21216;DHT22;10765;50.954;5.322;2022-08-01T04:11:46;20.00;1.00
21216;DHT22;10765;50.954;5.322;2022-08-01T04:14:13;19.90;1.00
21216;DHT22;10765;50.954;5.322;2022-08-01T04:16:40;19.80;1.00
21216;DHT22;10765;50.954;5.322;2022-08-01T04:19:07;19.80;99.90
21216;DHT22;10765;50.954;5.322;2022-08-01T04:21:35;19.80;99.90
21216;DHT22;10765;50.954;5.322;2022-08-01T04:24:06;19.90;99.90
21216;DHT22;10765;50.954;5.322;2022-08-01T04:26:34;20.00;1.00
21216;DHT22;10765;50.954;5.322;2022-08-01T04:29:04;20.00;1.00
21216;DHT22;10765;50.954;5.322;2022-08-01T04:31:33;20.00;1.00
21216;DHT22;10765;50.954;5.322;2022-08-01T04:34:02;20.00;99.90
21216;DHT22;10765;50.954;5.322;2022-08-01T04:36:32;20.10;99.90
21216;DHT22;10765;50.954;5.322;2022-08-01T04:39:01;20.20;68.80
21216;DHT22;10765;50.954;5.322;2022-08-01T04:41:30;20.20;99.90
21216;DHT22;10765;50.954;5.322;2022-08-01T04:43:57;20.30;1.00
21216;DHT22;10765;50.954;5.322;2022-08-01T04:46:26;20.30;99.90
21216;DHT22;10765;50.954;5.322;2022-08-01T04:48:54;20.20;99.90
21216;DHT22;10765;50.954;5.322;2022-08-01T04:51:22;20.20;99.90
21216;DHT22;10765;50.954;5.322;2022-08-01T04:53:49;20.20;1.00
21216;DHT22;10765;50.954;5.322;2022-08-01T04:56:19;20.20;1.00
21216;DHT22;10765;50.954;5.322;2022-08-01T04:58:47;20.20;1.00
21216;DHT22;10765;50.954;5.322;2022-08-01T05:01:14;20.30;99.90
21216;DHT22;10765;50.954;5.322;2022-08-01T05:03:41;20.30;99.90
21216;DHT22;10765;50.954;5.322;2022-08-01T05:06:08;20.20;99.90
21216;DHT22;10765;50.954;5.322;2022-08-01T05:08:35;19.80;1.00
21216;DHT22;10765;50.954;5.322;2022-08-01T05:11:02;19.60;99.90
21216;DHT22;10765;50.954;5.322;2022-08-01T05:13:31;19.50;99.90
21216;DHT22;10765;50.954;5.322;2022-08-01T05:15:57;19.50;1.00
21216;DHT22;10765;50.954;5.322;2022-08-01T05:18:24;19.50;1.00
21216;DHT22;10765;50.954;5.322;2022-08-01T05:20:52;19.50;99.90
21216;DHT22;10765;50.954;5.322;2022-08-01T05:23:19;19.30;1.00
21216;DHT22;10765;50.954;5.322;2022-08-01T05:25:46;19.10;67.00
21216;DHT22;10765;50.954;5.322;2022-08-01T05:28:14;19.20;99.90
21216;DHT22;10765;50.954;5.322;2022-08-01T05:30:42;19.20;99.90
21216;DHT22;10765;50.954;5.322;2022-08-01T05:33:09;19.20;99.90
21216;DHT22;10765;50.954;5.322;2022-08-01T05:35:36;19.20;99.90
21216;DHT22;10765;50.954;5.322;2022-08-01T05:38:03;19.20;99.90
21216;DHT22;10765;50.954;5.322;2022-08-01T05:40:30;19.20;99.90
21216;DHT22;10765;50.954;5.322;2022-08-01T05:42:57;19.10;99.90
21216;DHT22;10765;50.954;5.322;2022-08-01T05:45:24;19.10;99.90
21216;DHT22;10765;50.954;5.322;2022-08-01T05:47:52;18.90;99.90
21216;DHT22;10765;50.954;5.322;2022-08-01T05:50:19;18.90;99.90
21216;DHT22;10765;50.954;5.322;2022-08-01T05:52:45;18.90;99.90
21216;DHT22;10765;50.954;5.322;2022-08-01T05:55:12;18.80;99.90
21216;DHT22;10765;50.954;5.322;2022-08-01T05:57:39;19.00;99.90
21216;DHT22;10765;50.954;5.322;2022-08-01T06:00:07;19.00;99.90
21216;DHT22;10765;50.954;5.322;2022-08-01T06:02:40;19.10;99.90
21216;DHT22;10765;50.954;5.322;2022-08-01T06:05:09;19.20;99.90
21216;DHT22;10765;50.954;5.322;2022-08-01T06:07:37;19.20;99.90
21216;DHT22;10765;50.954;5.322;2022-08-01T06:10:06;19.20;99.90
21216;DHT22;10765;50.954;5.322;2022-08-01T06:12:33;19.30;99.90
21216;DHT22;10765;50.954;5.322;2022-08-01T06:15:00;19.40;99.90
21216;DHT22;10765;50.954;5.322;2022-08-01T06:17:27;19.50;99.90
21216;DHT22;10765;50.954;5.322;2022-08-01T06:19:54;19.50;99.90
21216;DHT22;10765;50.954;5.322;2022-08-01T06:22:22;19.40;99.90
21216;DHT22;10765;50.954;5.322;2022-08-01T06:24:49;19.40;99.90
21216;DHT22;10765;50.954;5.322;2022-08-01T06:27:17;19.40;99.90
21216;DHT22;10765;50.954;5.322;2022-08-01T06:29:44;19.50;99.90
21216;DHT22;10765;50.954;5.322;2022-08-01T06:32:11;19.50;99.90
21216;DHT22;10765;50.954;5.322;2022-08-01T06:34:38;19.50;99.90
21216;DHT22;10765;50.954;5.322;2022-08-01T06:37:05;19.60;99.90
21216;DHT22;10765;50.954;5.322;2022-08-01T06:39:33;19.80;99.90
21216;DHT22;10765;50.954;5.322;2022-08-01T06:42:00;19.90;99.90
21216;DHT22;10765;50.954;5.322;2022-08-01T06:44:27;20.10;99.90
21216;DHT22;10765;50.954;5.322;2022-08-01T06:46:54;20.30;99.90
21216;DHT22;10765;50.954;5.322;2022-08-01T06:49:20;20.20;99.90
21216;DHT22;10765;50.954;5.322;2022-08-01T06:51:47;20.10;99.90
21216;DHT22;10765;50.954;5.322;2022-08-01T06:54:14;20.30;99.90
21216;DHT22;10765;50.954;5.322;2022-08-01T06:56:43;20.60;99.90
21216;DHT22;10765;50.954;5.322;2022-08-01T06:59:10;20.90;99.90
21216;DHT22;10765;50.954;5.322;2022-08-01T07:01:36;21.40;99.90
21216;DHT22;10765;50.954;5.322;2022-08-01T07:04:04;21.70;99.90
21216;DHT22;10765;50.954;5.322;2022-08-01T07:06:31;22.00;99.90
21216;DHT22;10765;50.954;5.322;2022-08-01T07:08:57;22.30;99.90
21216;DHT22;10765;50.954;5.322;2022-08-01T07:11:26;22.70;99.90
21216;DHT22;10765;50.954;5.322;2022-08-01T07:13:54;23.30;1.00
21216;DHT22;10765;50.954;5.322;2022-08-01T07:16:22;23.90;99.90
21216;DHT22;10765;50.954;5.322;2022-08-01T07:18:49;23.80;99.90
21216;DHT22;10765;50.954;5.322;2022-08-01T07:21:16;24.00;99.90
21216;DHT22;10765;50.954;5.322;2022-08-01T07:23:43;24.30;99.90
21216;DHT22;10765;50.954;5.322;2022-08-01T07:26:10;24.70;99.90
21216;DHT22;10765;50.954;5.322;2022-08-01T07:28:38;26.00;36.40
21216;DHT22;10765;50.954;5.322;2022-08-01T07:31:06;26.30;1.00
21216;DHT22;10765;50.954;5.322;2022-08-01T07:33:33;26.90;1.00
21216;DHT22;10765;50.954;5.322;2022-08-01T07:36:00;26.60;1.00
21216;DHT22;10765;50.954;5.322;2022-08-01T07:38:27;26.90;1.00
21216;DHT22;10765;50.954;5.322;2022-08-01T07:40:53;26.40;1.00
21216;DHT22;10765;50.954;5.322;2022-08-01T07:43:21;26.60;1.00
21216;DHT22;10765;50.954;5.322;2022-08-01T07:45:48;26.20;1.00
21216;DHT22;10765;50.954;5.322;2022-08-01T07:48:16;26.00;1.00
21216;DHT22;10765;50.954;5.322;2022-08-01T07:50:44;25.20;1.00
21216;DHT22;10765;50.954;5.322;2022-08-01T07:53:11;25.20;1.00
21216;DHT22;10765;50.954;5.322;2022-08-01T07:55:38;25.50;1.00
21216;DHT22;10765;50.954;5.322;2022-08-01T07:58:05;25.00;1.00
21216;DHT22;10765;50.954;5.322;2022-08-01T08:00:32;24.60;1.00
21216;DHT22;10765;50.954;5.322;2022-08-01T08:02:59;24.80;1.00
21216;DHT22;10765;50.954;5.322;2022-08-01T08:05:27;24.50;1.00
21216;DHT22;10765;50.954;5.322;2022-08-01T08:07:54;24.40;1.00
21216;DHT22;10765;50.954;5.322;2022-08-01T08:10:21;25.10;1.00
21216;DHT22;10765;50.954;5.322;2022-08-01T08:12:48;26.40;1.00
21216;DHT22;10765;50.954;5.322;2022-08-01T08:15:15;27.50;99.90
21216;DHT22;10765;50.954;5.322;2022-08-01T08:17:42;27.80;99.90
21216;DHT22;10765;50.954;5.322;2022-08-01T08:20:09;27.60;99.90
21216;DHT22;10765;50.954;5.322;2022-08-01T08:22:38;27.10;99.90
21216;DHT22;10765;50.954;5.322;2022-08-01T08:25:07;26.80;99.90
21216;DHT22;10765;50.954;5.322;2022-08-01T08:27:34;26.40;99.90
21216;DHT22;10765;50.954;5.322;2022-08-01T08:30:01;26.20;99.90
21216;DHT22;10765;50.954;5.322;2022-08-01T08:32:28;26.00;99.90
21216;DHT22;10765;50.954;5.322;2022-08-01T08:34:55;26.00;99.90
21216;DHT22;10765;50.954;5.322;2022-08-01T08:37:22;26.60;99.90
21216;DHT22;10765;50.954;5.322;2022-08-01T08:39:50;27.80;99.90
21216;DHT22;10765;50.954;5.322;2022-08-01T08:42:18;28.10;99.90
21216;DHT22;10765;50.954;5.322;2022-08-01T08:44:45;29.50;99.90
21216;DHT22;10765;50.954;5.322;2022-08-01T08:47:12;29.70;99.90
21216;DHT22;10765;50.954;5.322;2022-08-01T08:49:42;29.50;99.90
21216;DHT22;10765;50.954;5.322;2022-08-01T08:52:10;30.20;99.90
21216;DHT22;10765;50.954;5.322;2022-08-01T08:54:38;31.10;99.90
21216;DHT22;10765;50.954;5.322;2022-08-01T08:57:09;31.90;99.90
21216;DHT22;10765;50.954;5.322;2022-08-01T08:59:37;34.00;99.90
21216;DHT22;10765;50.954;5.322;2022-08-01T09:02:04;34.50;99.90
21216;DHT22;10765;50.954;5.322;2022-08-01T09:04:31;34.20;99.90
21216;DHT22;10765;50.954;5.322;2022-08-01T09:06:59;32.10;99.90
21216;DHT22;10765;50.954;5.322;2022-08-01T09:09:25;31.00;99.90
21216;DHT22;10765;50.954;5.322;2022-08-01T09:11:54;30.50;99.90
21216;DHT22;10765;50.954;5.322;2022-08-01T09:14:23;29.60;99.90
21216;DHT22;10765;50.954;5.322;2022-08-01T09:17:00;27.70;99.90
21216;DHT22;10765;50.954;5.322;2022-08-01T09:19:35;26.80;99.90
21216;DHT22;10765;50.954;5.322;2022-08-01T09:22:03;26.90;99.90
21216;DHT22;10765;50.954;5.322;2022-08-01T09:24:31;26.80;99.90
21216;DHT22;10765;50.954;5.322;2022-08-01T09:26:59;27.20;99.90
21216;DHT22;10765;50.954;5.322;2022-08-01T09:29:29;27.20;99.90
21216;DHT22;10765;50.954;5.322;2022-08-01T09:31:57;27.00;99.90
21216;DHT22;10765;50.954;5.322;2022-08-01T09:34:26;27.20;99.90
21216;DHT22;10765;50.954;5.322;2022-08-01T09:36:54;27.90;99.90
21216;DHT22;10765;50.954;5.322;2022-08-01T09:39:23;29.20;99.90
21216;DHT22;10765;50.954;5.322;2022-08-01T09:41:51;29.10;99.90
21216;DHT22;10765;50.954;5.322;2022-08-01T09:44:18;29.40;99.90
21216;DHT22;10765;50.954;5.322;2022-08-01T09:46:51;31.00;99.90
21216;DHT22;10765;50.954;5.322;2022-08-01T09:49:29;31.30;99.90
21216;DHT22;10765;50.954;5.322;2022-08-01T09:51:58;31.20;99.90
21216;DHT22;10765;50.954;5.322;2022-08-01T09:54:30;31.50;99.90
21216;DHT22;10765;50.954;5.322;2022-08-01T09:57:12;32.60;99.90
21216;DHT22;10765;50.954;5.322;2022-08-01T09:59:41;34.30;99.90
21216;DHT22;10765;50.954;5.322;2022-08-01T10:02:11;34.80;99.90
21216;DHT22;10765;50.954;5.322;2022-08-01T10:04:48;35.70;99.90
21216;DHT22;10765;50.954;5.322;2022-08-01T10:07:15;33.60;99.90
21216;DHT22;10765;50.954;5.322;2022-08-01T10:09:42;32.90;99.90
21216;DHT22;10765;50.954;5.322;2022-08-01T10:12:11;33.10;99.90
21216;DHT22;10765;50.954;5.322;2022-08-01T10:14:40;31.50;99.90
21216;DHT22;10765;50.954;5.322;2022-08-01T10:17:11;30.60;99.90
21216;DHT22;10765;50.954;5.322;2022-08-01T10:19:40;30.70;99.90
21216;DHT22;10765;50.954;5.322;2022-08-01T10:22:10;30.40;99.90
21216;DHT22;10765;50.954;5.322;2022-08-01T10:24:40;31.10;99.90
21216;DHT22;10765;50.954;5.322;2022-08-01T10:27:08;31.60;99.90
21216;DHT22;10765;50.954;5.322;2022-08-01T10:29:40;32.60;99.90
21216;DHT22;10765;50.954;5.322;2022-08-01T10:32:07;32.60;99.90
21216;DHT22;10765;50.954;5.322;2022-08-01T10:34:37;31.90;99.90
21216;DHT22;10765;50.954;5.322;2022-08-01T10:37:05;31.60;99.90
21216;DHT22;10765;50.954;5.322;2022-08-01T10:39:32;31.00;99.90
21216;DHT22;10765;50.954;5.322;2022-08-01T10:42:00;29.60;99.90
21216;DHT22;10765;50.954;5.322;2022-08-01T10:44:28;28.90;99.90
21216;DHT22;10765;50.954;5.322;2022-08-01T10:47:02;31.30;99.90
21216;DHT22;10765;50.954;5.322;2022-08-01T10:49:31;33.40;99.90
21216;DHT22;10765;50.954;5.322;2022-08-01T10:52:02;35.20;99.90
21216;DHT22;10765;50.954;5.322;2022-08-01T10:54:38;32.70;99.90
21216;DHT22;10765;50.954;5.322;2022-08-01T10:57:05;31.30;99.90
21216;DHT22;10765;50.954;5.322;2022-08-01T10:59:32;33.60;99.90
21216;DHT22;10765;50.954;5.322;2022-08-01T11:02:02;35.30;99.90
21216;DHT22;10765;50.954;5.322;2022-08-01T11:04:34;37.20;99.90
21216;DHT22;10765;50.954;5.322;2022-08-01T11:07:13;36.90;99.90
21216;DHT22;10765;50.954;5.322;2022-08-01T11:09:43;37.30;99.90
21216;DHT22;10765;50.954;5.322;2022-08-01T11:12:11;36.60;99.90
21216;DHT22;10765;50.954;5.322;2022-08-01T11:17:51;31.70;99.90
21216;DHT22;10765;50.954;5.322;2022-08-01T11:20:20;30.70;99.90
21216;DHT22;10765;50.954;5.322;2022-08-01T11:26:12;33.70;99.90
21216;DHT22;10765;50.954;5.322;2022-08-01T11:28:41;34.00;99.90
21216;DHT22;10765;50.954;5.322;2022-08-01T11:31:27;34.40;99.90
21216;DHT22;10765;50.954;5.322;2022-08-01T11:33:54;32.30;99.90
21216;DHT22;10765;50.954;5.322;2022-08-01T11:36:21;32.10;99.90
21216;DHT22;10765;50.954;5.322;2022-08-01T11:39:12;32.50;99.90
21216;DHT22;10765;50.954;5.322;2022-08-01T11:41:41;33.50;99.90
21216;DHT22;10765;50.954;5.322;2022-08-01T11:44:10;35.20;99.90
21216;DHT22;10765;50.954;5.322;2022-08-01T11:46:52;35.80;99.90
21216;DHT22;10765;50.954;5.322;2022-08-01T11:49:28;36.40;99.90
21216;DHT22;10765;50.954;5.322;2022-08-01T11:52:05;36.10;99.90
21216;DHT22;10765;50.954;5.322;2022-08-01T11:54:34;33.60;99.90
21216;DHT22;10765;50.954;5.322;2022-08-01T11:57:04;34.20;99.90
21216;DHT22;10765;50.954;5.322;2022-08-01T11:59:39;33.80;99.90
21216;DHT22;10765;50.954;5.322;2022-08-01T12:02:19;33.40;99.90
21216;DHT22;10765;50.954;5.322;2022-08-01T12:04:52;33.00;99.90
21216;DHT22;10765;50.954;5.322;2022-08-01T12:07:20;31.90;99.90
21216;DHT22;10765;50.954;5.322;2022-08-01T12:09:47;31.80;99.90
21216;DHT22;10765;50.954;5.322;2022-08-01T12:12:17;30.50;99.90
21216;DHT22;10765;50.954;5.322;2022-08-01T12:14:45;29.60;99.90
21216;DHT22;10765;50.954;5.322;2022-08-01T12:17:20;29.60;99.90
21216;DHT22;10765;50.954;5.322;2022-08-01T12:19:54;29.50;99.90
21216;DHT22;10765;50.954;5.322;2022-08-01T12:22:22;29.50;99.90
21216;DHT22;10765;50.954;5.322;2022-08-01T12:24:49;29.30;99.90
21216;DHT22;10765;50.954;5.322;2022-08-01T12:27:26;28.70;99.90
21216;DHT22;10765;50.954;5.322;2022-08-01T12:29:53;28.70;99.90
21216;DHT22;10765;50.954;5.322;2022-08-01T12:32:26;28.40;99.90
21216;DHT22;10765;50.954;5.322;2022-08-01T12:34:54;29.00;99.90
21216;DHT22;10765;50.954;5.322;2022-08-01T12:37:21;30.30;99.90
21216;DHT22;10765;50.954;5.322;2022-08-01T12:39:48;31.60;99.90
21216;DHT22;10765;50.954;5.322;2022-08-01T12:42:15;32.40;99.90
21216;DHT22;10765;50.954;5.322;2022-08-01T12:44:45;31.70;99.90
21216;DHT22;10765;50.954;5.322;2022-08-01T12:47:14;32.00;99.90
21216;DHT22;10765;50.954;5.322;2022-08-01T12:49:43;32.80;99.90
21216;DHT22;10765;50.954;5.322;2022-08-01T12:52:11;33.50;99.90
21216;DHT22;10765;50.954;5.322;2022-08-01T12:57:44;32.60;99.90
21216;DHT22;10765;50.954;5.322;2022-08-01T13:00:20;32.40;99.90
21216;DHT22;10765;50.954;5.322;2022-08-01T13:02:47;34.10;99.90
21216;DHT22;10765;50.954;5.322;2022-08-01T13:05:16;35.60;99.90
21216;DHT22;10765;50.954;5.322;2022-08-01T13:07:46;36.10;99.90
21216;DHT22;10765;50.954;5.322;2022-08-01T13:10:23;35.90;99.90
21216;DHT22;10765;50.954;5.322;2022-08-01T13:12:52;36.10;99.90
21216;DHT22;10765;50.954;5.322;2022-08-01T13:15:24;36.70;99.90
21216;DHT22;10765;50.954;5.322;2022-08-01T13:17:52;36.30;99.90
21216;DHT22;10765;50.954;5.322;2022-08-01T13:20:24;35.40;99.90
21216;DHT22;10765;50.954;5.322;2022-08-01T13:22:51;35.60;99.90
21216;DHT22;10765;50.954;5.322;2022-08-01T13:25:18;36.90;99.90
21216;DHT22;10765;50.954;5.322;2022-08-01T13:27:45;36.50;99.90
21216;DHT22;10765;50.954;5.322;2022-08-01T13:30:14;32.90;99.90
21216;DHT22;10765;50.954;5.322;2022-08-01T13:32:43;31.50;99.90
21216;DHT22;10765;50.954;5.322;2022-08-01T13:35:12;30.90;99.90
21216;DHT22;10765;50.954;5.322;2022-08-01T13:37:40;30.10;99.90
21216;DHT22;10765;50.954;5.322;2022-08-01T13:40:10;29.60;99.90
21216;DHT22;10765;50.954;5.322;2022-08-01T13:42:37;31.00;99.90
21216;DHT22;10765;50.954;5.322;2022-08-01T13:45:05;32.10;99.90
21216;DHT22;10765;50.954;5.322;2022-08-01T13:47:36;32.00;99.90
21216;DHT22;10765;50.954;5.322;2022-08-01T13:50:05;33.30;99.90
21216;DHT22;10765;50.954;5.322;2022-08-01T13:52:32;34.10;99.90
21216;DHT22;10765;50.954;5.322;2022-08-01T13:54:59;32.70;99.90
21216;DHT22;10765;50.954;5.322;2022-08-01T13:57:26;31.20;99.90
21216;DHT22;10765;50.954;5.322;2022-08-01T13:59:54;30.40;99.90
21216;DHT22;10765;50.954;5.322;2022-08-01T14:02:21;29.90;99.90
21216;DHT22;10765;50.954;5.322;2022-08-01T14:04:48;29.90;99.90
21216;DHT22;10765;50.954;5.322;2022-08-01T14:07:16;30.40;99.90
21216;DHT22;10765;50.954;5.322;2022-08-01T14:09:43;30.60;99.90
21216;DHT22;10765;50.954;5.322;2022-08-01T14:12:09;30.30;99.90
21216;DHT22;10765;50.954;5.322;2022-08-01T14:14:36;29.60;99.90
21216;DHT22;10765;50.954;5.322;2022-08-01T14:17:04;28.80;99.90
21216;DHT22;10765;50.954;5.322;2022-08-01T14:19:31;28.70;99.90
21216;DHT22;10765;50.954;5.322;2022-08-01T14:21:58;28.40;99.90
21216;DHT22;10765;50.954;5.322;2022-08-01T14:24:26;29.00;99.90
21216;DHT22;10765;50.954;5.322;2022-08-01T14:26:53;29.70;99.90
21216;DHT22;10765;50.954;5.322;2022-08-01T14:29:20;30.10;99.90
21216;DHT22;10765;50.954;5.322;2022-08-01T14:31:47;29.80;99.90
21216;DHT22;10765;50.954;5.322;2022-08-01T14:34:14;29.60;99.90
21216;DHT22;10765;50.954;5.322;2022-08-01T14:36:41;29.40;99.90
21216;DHT22;10765;50.954;5.322;2022-08-01T14:39:08;29.50;99.90
21216;DHT22;10765;50.954;5.322;2022-08-01T14:41:36;29.30;99.90
21216;DHT22;10765;50.954;5.322;2022-08-01T14:44:03;28.70;99.90
21216;DHT22;10765;50.954;5.322;2022-08-01T14:46:31;28.80;99.90
21216;DHT22;10765;50.954;5.322;2022-08-01T14:48:58;29.00;99.90
21216;DHT22;10765;50.954;5.322;2022-08-01T14:51:25;28.90;99.90
21216;DHT22;10765;50.954;5.322;2022-08-01T14:53:51;28.80;99.90
21216;DHT22;10765;50.954;5.322;2022-08-01T14:56:19;28.70;99.90
21216;DHT22;10765;50.954;5.322;2022-08-01T14:58:47;28.70;99.90
21216;DHT22;10765;50.954;5.322;2022-08-01T15:01:14;28.80;99.90
21216;DHT22;10765;50.954;5.322;2022-08-01T15:03:42;28.70;99.90
21216;DHT22;10765;50.954;5.322;2022-08-01T15:06:09;28.40;99.90
21216;DHT22;10765;50.954;5.322;2022-08-01T15:08:37;28.40;99.90
21216;DHT22;10765;50.954;5.322;2022-08-01T15:11:04;28.50;99.90
21216;DHT22;10765;50.954;5.322;2022-08-01T15:13:31;28.50;99.90
21216;DHT22;10765;50.954;5.322;2022-08-01T15:15:59;29.00;99.90
21216;DHT22;10765;50.954;5.322;2022-08-01T15:18:26;29.10;99.90
21216;DHT22;10765;50.954;5.322;2022-08-01T15:20:54;28.80;99.90
21216;DHT22;10765;50.954;5.322;2022-08-01T15:23:20;28.30;99.90
21216;DHT22;10765;50.954;5.322;2022-08-01T15:25:47;28.10;99.90
21216;DHT22;10765;50.954;5.322;2022-08-01T15:28:14;28.70;99.90
21216;DHT22;10765;50.954;5.322;2022-08-01T15:30:42;29.00;99.90
21216;DHT22;10765;50.954;5.322;2022-08-01T15:33:10;28.90;99.90
21216;DHT22;10765;50.954;5.322;2022-08-01T15:35:37;28.70;99.90
21216;DHT22;10765;50.954;5.322;2022-08-01T15:38:05;28.30;99.90
21216;DHT22;10765;50.954;5.322;2022-08-01T15:40:32;28.40;99.90
21216;DHT22;10765;50.954;5.322;2022-08-01T15:43:00;28.60;99.90
21216;DHT22;10765;50.954;5.322;2022-08-01T15:45:27;28.60;99.90
21216;DHT22;10765;50.954;5.322;2022-08-01T15:47:55;28.20;99.90
21216;DHT22;10765;50.954;5.322;2022-08-01T15:50:23;28.00;99.90
21216;DHT22;10765;50.954;5.322;2022-08-01T15:52:50;27.80;99.90
21216;DHT22;10765;50.954;5.322;2022-08-01T15:55:17;27.70;99.90